createdAt,value
2023-05-27T08:33:44.585Z,74.23
2023-05-27T08:36:12.905Z,74.21
2023-05-27T08:38:39.679Z,74.12
2023-05-27T08:41:06.746Z,73.76
2023-05-27T08:43:35.205Z,71.86
2023-05-27T08:46:02.475Z,73.10
2023-05-27T08:48:29.245Z,71.56
2023-05-27T08:50:56.293Z,70.21
2023-05-27T08:53:23.804Z,70.50
2023-05-27T08:55:52.356Z,70.97
2023-05-27T08:58:19.075Z,70.08
2023-05-27T09:00:45.847Z,70.42
2023-05-27T09:03:12.683Z,68.78
2023-05-27T09:05:39.372Z,69.15
2023-05-27T09:08:06.093Z,68.85
2023-05-27T09:10:39.513Z,66.97
2023-05-27T09:13:06.439Z,68.92
2023-05-27T09:15:33.683Z,68.51
2023-05-27T09:18:00.491Z,67.99
2023-05-27T09:20:28.115Z,67.54
2023-05-27T09:23:01.951Z,65.71
2023-05-27T09:25:28.973Z,64.81
2023-05-27T09:27:56.213Z,65.29
2023-05-27T09:30:23.637Z,65.61
2023-05-27T09:32:50.616Z,65.60
2023-05-27T09:35:17.912Z,65.08
2023-05-27T09:37:46.341Z,63.33
2023-05-27T09:40:14.082Z,63.39
2023-05-27T09:42:44.263Z,63.72
2023-05-27T09:45:14.814Z,62.84
2023-05-27T09:47:44.959Z,62.60
2023-05-27T09:50:12.202Z,64.75
2023-05-27T09:52:44.241Z,65.23
2023-05-27T09:55:15.128Z,66.14
2023-05-27T09:57:41.942Z,62.88
2023-05-27T10:00:12.745Z,62.94
2023-05-27T10:02:49.711Z,63.84
2023-05-27T10:05:17.702Z,62.09
2023-05-27T10:08:00.321Z,61.93
2023-05-27T10:10:31.963Z,65.01
2023-05-27T10:12:58.734Z,63.71
2023-05-27T10:15:28.539Z,65.45
2023-05-27T10:17:56.637Z,67.51
2023-05-27T10:20:36.063Z,65.52
2023-05-27T10:23:28.420Z,65.18
2023-05-27T10:26:08.545Z,64.94
2023-05-27T10:28:42.588Z,64.94
2023-05-27T10:31:10.796Z,64.75
2023-05-27T10:33:44.949Z,65.20
2023-05-27T10:36:14.373Z,65.48
2023-05-27T10:38:42.587Z,64.59
2023-05-27T10:41:09.464Z,64.67
2023-05-27T10:43:36.749Z,65.14
2023-05-27T10:46:11.395Z,64.66
2023-05-27T10:48:40.592Z,64.09
2023-05-27T10:51:10.234Z,62.85
2023-05-27T10:53:37.469Z,63.40
2023-05-27T10:56:04.323Z,62.31
2023-05-27T10:58:31.059Z,63.79
2023-05-27T11:01:01.329Z,62.23
2023-05-27T11:03:31.758Z,61.72
2023-05-27T11:06:02.848Z,62.64
2023-05-27T11:08:30.620Z,63.14
2023-05-27T11:11:00.878Z,63.84
2023-05-27T11:13:34.646Z,64.36
2023-05-27T11:16:02.258Z,65.58
2023-05-27T11:18:42.824Z,64.63
2023-05-27T11:21:10.970Z,63.93
2023-05-27T11:23:44.992Z,63.92
2023-05-27T11:26:18.744Z,63.09
2023-05-27T11:28:55.924Z,61.02
2023-05-27T11:31:27.711Z,61.95
2023-05-27T11:33:54.570Z,59.65
2023-05-27T11:36:24.386Z,59.35
2023-05-27T11:38:52.665Z,58.09
2023-05-27T11:41:23.740Z,58.98
2023-05-27T11:44:08.657Z,57.96
2023-05-27T11:46:42.838Z,58.54
2023-05-27T11:49:13.057Z,58.95
2023-05-27T11:51:46.983Z,57.83
2023-05-27T11:54:36.340Z,56.96
2023-05-27T11:57:08.048Z,57.14
2023-05-27T11:59:35.752Z,55.52
2023-05-27T12:02:02.536Z,53.35
2023-05-27T12:04:29.330Z,55.88
2023-05-27T12:06:56.608Z,53.78
2023-05-27T12:09:24.781Z,53.60
2023-05-27T12:11:51.472Z,53.52
2023-05-27T12:14:18.198Z,53.17
2023-05-27T12:16:44.942Z,54.51
2023-05-27T12:19:12.787Z,54.26
2023-05-27T12:21:39.657Z,54.36
2023-05-27T12:24:07.192Z,53.99
2023-05-27T12:26:33.985Z,55.45
2023-05-27T12:29:00.837Z,55.95
2023-05-27T12:31:27.540Z,52.97
2023-05-27T12:33:54.305Z,51.94
2023-05-27T12:36:21.015Z,52.38
2023-05-27T12:38:47.770Z,50.94
2023-05-27T12:41:14.674Z,53.18
2023-05-27T12:43:41.368Z,55.63
2023-05-27T12:46:08.015Z,55.18
2023-05-27T12:48:34.728Z,53.15
2023-05-27T12:51:01.580Z,49.58
2023-05-27T12:53:28.394Z,47.89
2023-05-27T12:55:55.093Z,47.56
2023-05-27T12:58:21.835Z,49.47
2023-05-27T13:00:49.273Z,48.79
2023-05-27T13:03:16.229Z,47.65
2023-05-27T13:05:43.006Z,48.51
2023-05-27T13:08:09.772Z,51.54
2023-05-27T13:10:36.504Z,52.55
2023-05-27T13:13:03.671Z,52.34
2023-05-27T13:15:30.570Z,51.01
2023-05-27T13:17:57.451Z,50.23
2023-05-27T13:20:25.273Z,51.57
2023-05-27T13:22:52.238Z,51.64
2023-05-27T13:25:18.962Z,54.53
2023-05-27T13:27:46.128Z,53.04
2023-05-27T13:30:16.647Z,49.33
2023-05-27T13:32:44.149Z,45.88
2023-05-27T13:35:15.100Z,46.42
2023-05-27T13:37:42.153Z,46.01
2023-05-27T13:40:09.282Z,44.81
2023-05-27T13:42:36.664Z,47.14
2023-05-27T13:45:03.518Z,47.46
2023-05-27T13:47:30.841Z,47.08
2023-05-27T13:49:57.492Z,45.31
2023-05-27T13:52:24.740Z,44.71
2023-05-27T13:54:51.411Z,43.52
2023-05-27T13:57:18.158Z,44.20
2023-05-27T13:59:44.918Z,47.16
2023-05-27T14:02:11.740Z,46.36
2023-05-27T14:04:38.539Z,47.47
2023-05-27T14:07:05.477Z,47.64
2023-05-27T14:09:32.236Z,49.21
2023-05-27T14:11:58.854Z,49.20
2023-05-27T14:14:25.636Z,51.23
2023-05-27T14:16:52.401Z,50.74
2023-05-27T14:19:19.537Z,49.20
2023-05-27T14:21:46.559Z,50.11
2023-05-27T14:24:13.963Z,46.83
2023-05-27T14:26:41.613Z,47.13
2023-05-27T14:29:08.302Z,45.12
2023-05-27T14:31:35.033Z,45.44
2023-05-27T14:34:01.801Z,44.62
2023-05-27T14:36:28.557Z,42.94
2023-05-27T14:38:55.437Z,44.03
2023-05-27T14:41:23.172Z,41.60
2023-05-27T14:43:55.198Z,40.84
2023-05-27T14:46:22.872Z,41.67
2023-05-27T14:48:49.704Z,42.47
2023-05-27T14:51:17.397Z,43.39
2023-05-27T14:53:44.095Z,42.37
2023-05-27T14:56:10.814Z,41.53
2023-05-27T14:58:37.643Z,42.25
2023-05-27T15:01:04.465Z,41.54
2023-05-27T15:03:31.915Z,41.29
2023-05-27T15:05:59.356Z,41.92
2023-05-27T15:08:26.692Z,40.75
2023-05-27T15:10:54.310Z,43.07
2023-05-27T15:13:21.528Z,41.70
2023-05-27T15:15:48.433Z,42.97
2023-05-27T15:18:15.686Z,41.44
2023-05-27T15:20:42.640Z,45.37
2023-05-27T15:23:09.632Z,45.77
2023-05-27T15:25:36.506Z,46.15
2023-05-27T15:28:03.240Z,46.78
2023-05-27T15:30:30.018Z,46.68
2023-05-27T15:32:56.809Z,48.03
2023-05-27T15:35:23.474Z,46.54
2023-05-27T15:37:50.398Z,45.77
2023-05-27T15:40:17.331Z,44.25
2023-05-27T15:42:44.326Z,44.90
2023-05-27T15:45:11.535Z,44.46
2023-05-27T15:47:38.324Z,44.96
2023-05-27T15:50:05.456Z,45.03
2023-05-27T15:52:32.444Z,42.72
2023-05-27T15:54:59.201Z,43.52
2023-05-27T15:57:25.898Z,42.07
2023-05-27T15:59:52.956Z,42.23
2023-05-27T16:02:19.777Z,43.62
2023-05-27T16:04:47.273Z,42.33
2023-05-27T16:07:14.803Z,41.48
2023-05-27T16:09:41.533Z,43.49
2023-05-27T16:12:08.322Z,42.38
2023-05-27T16:14:35.226Z,43.20
2023-05-27T16:17:02.042Z,43.43
2023-05-27T16:19:28.670Z,43.54
2023-05-27T16:21:55.328Z,44.82
2023-05-27T16:24:22.080Z,44.62
2023-05-27T16:26:48.826Z,46.68
2023-05-27T16:29:15.552Z,48.07
2023-05-27T16:31:42.338Z,48.70
2023-05-27T16:34:08.998Z,49.61
2023-05-27T16:36:37.607Z,51.90
2023-05-27T16:39:07.037Z,52.08
2023-05-27T16:41:33.841Z,52.39
2023-05-27T16:44:00.542Z,53.74
2023-05-27T16:46:27.701Z,54.25
2023-05-27T16:48:54.536Z,55.16
2023-05-27T16:51:21.321Z,55.58
2023-05-27T16:53:47.975Z,54.67
2023-05-27T16:56:14.805Z,54.24
2023-05-27T16:58:41.616Z,55.37
2023-05-27T17:01:08.446Z,56.13
2023-05-27T17:03:35.176Z,54.18
2023-05-27T17:06:01.940Z,54.30
2023-05-27T17:08:28.589Z,55.88
2023-05-27T17:10:55.249Z,59.43
2023-05-27T17:13:22.460Z,64.76
2023-05-27T17:15:49.237Z,65.66
2023-05-27T17:18:16.116Z,66.71
2023-05-27T17:20:42.797Z,70.04
2023-05-27T17:23:09.597Z,68.68
2023-05-27T17:25:36.334Z,67.26
2023-05-27T17:28:03.607Z,68.78
2023-05-27T17:30:30.720Z,70.80
2023-05-27T17:32:57.566Z,69.93
2023-05-27T17:35:24.258Z,69.66
2023-05-27T17:37:51.186Z,70.98
2023-05-27T17:40:17.837Z,73.68
2023-05-27T17:42:44.678Z,74.54
2023-05-27T17:45:11.319Z,76.96
2023-05-27T17:47:38.125Z,76.26
2023-05-27T17:50:05.092Z,74.87
2023-05-27T17:52:31.793Z,79.15
2023-05-27T17:54:58.523Z,82.19
2023-05-27T17:57:25.398Z,80.70
2023-05-27T17:59:52.110Z,83.53
2023-05-27T18:02:18.885Z,83.94
2023-05-27T18:04:45.808Z,82.81
2023-05-27T18:07:12.489Z,81.40
2023-05-27T18:09:42.215Z,79.04
2023-05-27T18:12:09.218Z,77.66
2023-05-27T18:14:36.147Z,76.17
2023-05-27T18:17:06.776Z,74.63
2023-05-27T18:19:33.665Z,73.99
2023-05-27T18:22:00.363Z,78.35
2023-05-27T18:24:27.298Z,77.64
2023-05-27T18:26:54.864Z,75.09
